Time;durP1;ratioP1;P1;durP2;ratioP2;P2;SDS_P1;SDS_P2;PMS_P1;PMS_P2;Temp;Humidity;BMP_temperature;BMP_pressure;BME280_temperature;BME280_humidity;BME280_pressure;Samples;Min_cycle;Max_cycle;Signal;HPM_P1;HPM_P2
2023/07/28 00:01:43;;;;;;;3.27;2.63;;;24.10;78.50;;;;;;5073633;28;20209;-71
2023/07/28 00:04:10;;;;;;;3.13;2.83;;;23.90;78.10;;;;;;5073681;28;20205;-72
2023/07/28 00:06:37;;;;;;;4.07;2.23;;;23.90;79.20;;;;;;5073375;28;20701;-72
2023/07/28 00:09:04;;;;;;;2.77;2.30;;;23.90;79.50;;;;;;5072987;28;20201;-72
2023/07/28 00:11:31;;;;;;;3.53;2.50;;;23.80;79.50;;;;;;5073257;28;20231;-72
2023/07/28 00:13:59;;;;;;;3.57;2.53;;;23.80;79.70;;;;;;5073689;28;20626;-72
2023/07/28 00:16:26;;;;;;;3.23;2.50;;;23.80;79.90;;;;;;5073415;28;20200;-71
2023/07/28 00:18:53;;;;;;;3.87;2.70;;;23.90;80.00;;;;;;5073105;28;20324;-71
2023/07/28 00:21:20;;;;;;;3.40;2.40;;;23.90;80.00;;;;;;5073046;28;20197;-71
2023/07/28 00:23:46;;;;;;;2.80;2.50;;;23.90;79.90;;;;;;5073392;28;20216;-72
2023/07/28 00:26:13;;;;;;;2.80;2.50;;;23.90;80.00;;;;;;5073205;28;20603;-72
2023/07/28 00:28:40;;;;;;;4.67;2.57;;;23.90;79.90;;;;;;5073170;28;20225;-72
2023/07/28 00:31:08;;;;;;;3.13;2.83;;;23.90;80.70;;;;;;5072483;28;20217;-72
2023/07/28 00:33:35;;;;;;;3.20;2.63;;;23.90;80.00;;;;;;5073190;28;20201;-71
2023/07/28 00:36:02;;;;;;;3.00;2.40;;;23.90;80.90;;;;;;5072524;28;20204;-72
2023/07/28 00:38:28;;;;;;;3.23;2.63;;;23.90;80.20;;;;;;5072915;28;20225;-71
2023/07/28 00:40:55;;;;;;;2.90;2.60;;;23.80;80.20;;;;;;5072526;28;20209;-71
2023/07/28 00:43:22;;;;;;;2.57;2.37;;;23.80;80.40;;;;;;5072687;28;20239;-71
2023/07/28 00:45:49;;;;;;;2.37;2.13;;;23.80;80.40;;;;;;5072913;28;20211;-72
2023/07/28 00:48:20;;;;;;;3.17;2.87;;;23.80;80.80;;;;;;5072686;28;20579;-71
2023/07/28 00:50:49;;;;;;;2.30;2.10;;;23.80;81.10;;;;;;5072074;28;20227;-71
2023/07/28 00:53:16;;;;;;;2.40;2.20;;;23.80;81.20;;;;;;5072267;28;20197;-71
2023/07/28 00:55:43;;;;;;;2.63;2.43;;;23.80;81.20;;;;;;5072501;28;20205;-72
2023/07/28 00:58:10;;;;;;;4.27;2.63;;;23.70;81.20;;;;;;5072596;28;20244;-72
2023/07/28 01:00:37;;;;;;;4.00;2.90;;;23.80;81.40;;;;;;5072242;28;20645;-71
2023/07/28 01:03:05;;;;;;;4.20;2.87;;;23.70;81.50;;;;;;5072061;28;20652;-72
2023/07/28 01:05:44;;;;;;;2.80;2.50;;;23.70;81.70;;;;;;5072188;28;20671;-72
2023/07/28 01:08:21;;;;;;;2.70;2.50;;;23.70;82.00;;;;;;5072401;28;20536;-71
2023/07/28 01:10:48;;;;;;;2.83;2.50;;;23.60;81.90;;;;;;5072317;28;20228;-72
2023/07/28 01:13:14;;;;;;;3.00;2.80;;;23.60;81.90;;;;;;5071389;28;20655;-71
2023/07/28 01:15:41;;;;;;;2.73;2.53;;;23.60;81.90;;;;;;5072074;28;20213;-72
2023/07/28 01:18:08;;;;;;;3.50;2.60;;;23.60;81.90;;;;;;5072459;28;20256;-71
2023/07/28 01:20:40;;;;;;;5.47;3.00;;;23.60;81.90;;;;;;5070544;28;20228;-71
2023/07/28 01:23:10;;;;;;;3.30;3.00;;;23.60;82.40;;;;;;5071941;28;20227;-72
2023/07/28 01:26:04;;;;;;;3.33;3.00;;;23.60;82.50;;;;;;5072513;28;20604;-72
2023/07/28 01:28:34;;;;;;;3.40;3.10;;;23.60;83.20;;;;;;5071286;28;20314;-71
2023/07/28 01:31:02;;;;;;;4.47;2.80;;;23.50;82.80;;;;;;5071622;28;20225;-72
2023/07/28 01:33:29;;;;;;;3.03;2.47;;;23.50;82.80;;;;;;5072211;28;20300;-71
2023/07/28 01:35:58;;;;;;;3.90;3.17;;;23.50;82.60;;;;;;5071485;28;20685;-71
2023/07/28 01:38:25;;;;;;;3.33;2.80;;;23.50;82.50;;;;;;5072292;28;20686;-72
2023/07/28 01:40:51;;;;;;;3.80;2.87;;;23.50;81.80;;;;;;5071618;28;20201;-72
2023/07/28 01:43:18;;;;;;;3.97;2.90;;;23.40;81.70;;;;;;5071896;28;20243;-72
2023/07/28 01:45:46;;;;;;;3.33;2.97;;;23.30;82.40;;;;;;5071947;28;20681;-72
2023/07/28 01:48:13;;;;;;;3.40;3.10;;;23.30;82.70;;;;;;5072083;28;20221;-71
2023/07/28 01:50:40;;;;;;;3.10;2.80;;;23.30;83.00;;;;;;5071239;28;20535;-72
2023/07/28 01:53:07;;;;;;;2.70;2.30;;;23.20;82.90;;;;;;5071894;28;20209;-71
2023/07/28 01:55:34;;;;;;;3.47;2.80;;;23.30;83.10;;;;;;5071895;28;20731;-72
2023/07/28 01:58:02;;;;;;;2.70;2.50;;;23.20;82.90;;;;;;5071713;28;20188;-71
2023/07/28 02:00:29;;;;;;;3.77;2.93;;;23.30;83.00;;;;;;5071669;28;20227;-72
2023/07/28 02:02:58;;;;;;;4.07;2.60;;;23.20;82.70;;;;;;5071562;28;20225;-71
2023/07/28 02:05:25;;;;;;;3.00;2.60;;;23.30;82.90;;;;;;5072049;28;20295;-71
2023/07/28 02:07:52;;;;;;;2.63;2.43;;;23.30;82.70;;;;;;5071933;28;20535;-72
2023/07/28 02:10:19;;;;;;;2.90;2.60;;;23.30;82.60;;;;;;5071676;28;20215;-71
2023/07/28 02:12:46;;;;;;;3.57;2.67;;;23.30;82.60;;;;;;5071356;28;20661;-71
2023/07/28 02:15:13;;;;;;;4.57;2.70;;;23.30;82.70;;;;;;5071809;28;20212;-71
2023/07/28 02:17:40;;;;;;;3.13;2.60;;;23.20;82.70;;;;;;5071559;28;20217;-72
2023/07/28 02:20:12;;;;;;;2.97;2.67;;;23.20;83.00;;;;;;5071086;28;20311;-72
2023/07/28 02:22:39;;;;;;;3.10;2.40;;;23.20;83.20;;;;;;5071562;28;20212;-71
2023/07/28 02:25:07;;;;;;;2.93;2.63;;;23.20;83.10;;;;;;5072802;28;20216;-72
2023/07/28 02:27:33;;;;;;;3.37;3.07;;;23.20;83.20;;;;;;5075734;28;20233;-72
2023/07/28 02:30:00;;;;;;;4.10;2.63;;;23.10;83.70;;;;;;5075352;28;20680;-71
2023/07/28 02:32:29;;;;;;;3.87;2.67;;;23.10;83.30;;;;;;5074618;28;20219;-71
2023/07/28 02:34:56;;;;;;;4.57;3.10;;;23.10;83.40;;;;;;5075387;28;20208;-72
2023/07/28 02:37:25;;;;;;;3.60;2.87;;;23.00;83.40;;;;;;5075584;28;20353;-71
2023/07/28 02:39:52;;;;;;;4.17;2.90;;;23.00;83.70;;;;;;5074948;28;20221;-72
2023/07/28 02:42:19;;;;;;;3.13;2.80;;;22.90;83.80;;;;;;5073502;28;20239;-71
2023/07/28 02:44:45;;;;;;;3.10;2.90;;;22.90;84.00;;;;;;5075159;28;20217;-72
2023/07/28 02:47:12;;;;;;;5.20;2.70;;;22.90;84.20;;;;;;5074845;28;20204;-72
2023/07/28 02:49:42;;;;;;;3.70;3.20;;;22.80;84.30;;;;;;5075040;28;20211;-72
2023/07/28 02:52:09;;;;;;;3.47;3.17;;;22.80;84.60;;;;;;5074674;28;20305;-72
2023/07/28 02:54:37;;;;;;;5.33;2.80;;;22.80;84.50;;;;;;5074789;28;20259;-72
2023/07/28 02:57:04;;;;;;;5.83;2.50;;;22.90;84.70;;;;;;5075259;28;20208;-71
2023/07/28 02:59:31;;;;;;;3.00;2.70;;;22.90;84.50;;;;;;5075127;28;20213;-72
2023/07/28 03:01:58;;;;;;;3.27;2.97;;;22.90;84.40;;;;;;5073687;28;20677;-71
2023/07/28 03:04:24;;;;;;;2.97;2.67;;;22.90;84.40;;;;;;5074756;28;20235;-71
2023/07/28 03:06:51;;;;;;;3.03;2.60;;;22.90;84.40;;;;;;5074896;28;20744;-72
2023/07/28 03:09:18;;;;;;;4.73;3.33;;;22.90;84.20;;;;;;5074853;28;20231;-71
2023/07/28 03:11:46;;;;;;;3.10;2.53;;;22.90;84.20;;;;;;5073731;28;20229;-72
2023/07/28 03:14:13;;;;;;;3.07;2.43;;;22.90;84.20;;;;;;5074853;28;20205;-71
2023/07/28 03:16:40;;;;;;;2.60;2.40;;;22.90;84.30;;;;;;5074109;28;20229;-72
2023/07/28 03:19:07;;;;;;;3.00;2.63;;;23.00;84.40;;;;;;5074509;28;20568;-72
2023/07/28 03:21:34;;;;;;;2.93;2.67;;;22.90;84.20;;;;;;5073980;28;20199;-71
2023/07/28 03:24:01;;;;;;;3.90;3.00;;;23.00;84.40;;;;;;5074055;28;20229;-72
2023/07/28 03:26:27;;;;;;;3.40;2.70;;;22.90;84.20;;;;;;5074813;28;20229;-72
2023/07/28 03:28:56;;;;;;;3.57;2.63;;;22.90;84.20;;;;;;5074256;28;20224;-71
2023/07/28 03:31:23;;;;;;;3.30;3.00;;;22.90;84.30;;;;;;5073543;28;20224;-72
2023/07/28 03:33:49;;;;;;;3.10;2.80;;;22.90;84.40;;;;;;5074064;28;20657;-71
2023/07/28 03:36:16;;;;;;;3.00;2.60;;;22.80;84.50;;;;;;5074111;28;20209;-71
2023/07/28 03:38:43;;;;;;;3.87;3.37;;;22.80;84.90;;;;;;5074336;28;20292;-72
2023/07/28 03:41:10;;;;;;;3.20;2.90;;;22.80;85.00;;;;;;5073919;28;20205;-72
2023/07/28 03:43:37;;;;;;;3.87;3.43;;;22.80;85.20;;;;;;5059546;28;20620;-72
2023/07/28 03:46:05;;;;;;;3.70;2.70;;;22.80;85.50;;;;;;5053896;28;20232;-72
2023/07/28 03:48:33;;;;;;;4.50;3.10;;;22.80;85.60;;;;;;5063905;28;20699;-71
2023/07/28 03:51:00;;;;;;;3.27;2.73;;;22.70;85.90;;;;;;5073541;28;20205;-71
2023/07/28 03:53:27;;;;;;;4.33;3.00;;;22.70;86.80;;;;;;5074048;28;20197;-72
2023/07/28 03:55:57;;;;;;;5.37;3.20;;;22.60;86.00;;;;;;5074178;28;20212;-72
2023/07/28 03:58:24;;;;;;;3.73;2.90;;;22.70;86.60;;;;;;5073637;28;20189;-71
2023/07/28 04:00:51;;;;;;;3.63;2.77;;;22.70;86.70;;;;;;5073451;28;20228;-71
2023/07/28 04:03:20;;;;;;;3.70;3.27;;;22.60;86.90;;;;;;5073393;28;20316;-72
2023/07/28 04:05:47;;;;;;;2.97;2.70;;;22.70;87.30;;;;;;5073695;28;20661;-72
2023/07/28 04:08:14;;;;;;;6.63;3.77;;;22.60;87.00;;;;;;5073594;28;20221;-71
2023/07/28 04:10:41;;;;;;;4.50;3.93;;;22.60;87.40;;;;;;5073055;28;20231;-71
2023/07/28 04:13:07;;;;;;;3.73;3.23;;;22.50;87.70;;;;;;5073325;28;20649;-71
2023/07/28 04:15:34;;;;;;;3.80;3.30;;;22.50;87.90;;;;;;5073397;28;20223;-71
2023/07/28 04:18:01;;;;;;;4.73;3.90;;;22.50;88.20;;;;;;5073114;28;20204;-72
2023/07/28 04:20:29;;;;;;;3.47;3.10;;;22.50;88.30;;;;;;5072933;28;20697;-71
2023/07/28 04:22:56;;;;;;;3.90;3.30;;;22.50;88.40;;;;;;5072917;28;20227;-72
2023/07/28 04:25:23;;;;;;;4.13;3.40;;;22.50;88.50;;;;;;5073467;28;20250;-71
2023/07/28 04:27:50;;;;;;;3.90;3.20;;;22.50;88.50;;;;;;5072889;28;20201;-72
2023/07/28 04:30:16;;;;;;;3.73;3.40;;;22.60;88.70;;;;;;5072822;28;20672;-71
2023/07/28 04:32:43;;;;;;;3.40;3.10;;;22.60;89.10;;;;;;5072718;28;20205;-71
2023/07/28 04:35:10;;;;;;;3.90;3.23;;;22.50;88.90;;;;;;5073176;28;20756;-71
2023/07/28 04:37:38;;;;;;;3.47;2.87;;;22.60;88.90;;;;;;5072872;28;20303;-71
2023/07/28 04:40:08;;;;;;;3.37;3.07;;;22.60;89.00;;;;;;5073215;28;20303;-71
2023/07/28 04:42:36;;;;;;;3.33;3.03;;;22.60;89.20;;;;;;5066807;28;20292;-71
2023/07/28 04:45:03;;;;;;;4.07;3.27;;;22.60;88.90;;;;;;5072685;28;20205;-71
2023/07/28 04:47:29;;;;;;;3.70;3.30;;;22.70;89.00;;;;;;5072393;28;20223;-71
2023/07/28 04:49:56;;;;;;;3.60;3.30;;;22.70;89.10;;;;;;5072397;28;20313;-72
2023/07/28 04:52:23;;;;;;;3.53;3.13;;;22.70;89.30;;;;;;5072555;28;20205;-72
2023/07/28 04:54:51;;;;;;;4.07;3.67;;;22.70;89.20;;;;;;5072862;28;20215;-72
2023/07/28 04:57:19;;;;;;;3.50;3.20;;;22.70;89.30;;;;;;5072246;28;20782;-72
2023/07/28 04:59:46;;;;;;;4.87;3.20;;;22.70;89.30;;;;;;5072689;28;20217;-72
2023/07/28 05:02:12;;;;;;;4.00;3.57;;;22.80;89.40;;;;;;5071773;28;20688;-72
2023/07/28 05:04:39;;;;;;;3.83;3.53;;;22.70;89.50;;;;;;5072826;28;20211;-72
2023/07/28 05:07:06;;;;;;;5.20;4.00;;;22.70;89.80;;;;;;5072555;28;20217;-72
2023/07/28 05:09:33;;;;;;;3.87;3.37;;;22.60;89.80;;;;;;5072471;28;20236;-72
2023/07/28 05:12:01;;;;;;;4.07;3.40;;;22.50;90.20;;;;;;5071753;28;20331;-73
2023/07/28 05:14:28;;;;;;;3.63;3.33;;;22.50;90.40;;;;;;5072188;28;20209;-72
2023/07/28 05:16:55;;;;;;;4.10;3.70;;;22.50;90.40;;;;;;5072344;28;20197;-72
2023/07/28 05:19:22;;;;;;;4.10;3.73;;;22.50;90.40;;;;;;5072365;28;20224;-71
2023/07/28 05:21:49;;;;;;;3.70;3.40;;;22.50;90.60;;;;;;5071935;28;20243;-71
2023/07/28 05:24:15;;;;;;;3.97;3.40;;;22.40;90.70;;;;;;5072459;28;20217;-71
2023/07/28 05:26:42;;;;;;;4.07;3.47;;;22.50;90.80;;;;;;5071794;28;20204;-71
2023/07/28 05:29:10;;;;;;;3.57;3.20;;;22.40;90.80;;;;;;5072062;28;20233;-72
2023/07/28 05:31:37;;;;;;;3.90;3.60;;;22.50;91.00;;;;;;5071688;28;20197;-71
2023/07/28 05:34:05;;;;;;;3.50;3.20;;;22.50;91.00;;;;;;5072211;28;20587;-72
2023/07/28 05:36:31;;;;;;;3.60;3.30;;;22.50;91.00;;;;;;5072322;28;20204;-71
2023/07/28 05:38:59;;;;;;;4.83;3.37;;;22.50;91.10;;;;;;5071915;28;20201;-71
2023/07/28 05:41:26;;;;;;;4.33;3.73;;;22.40;91.40;;;;;;5071304;28;20256;-71
2023/07/28 05:43:53;;;;;;;4.10;3.70;;;22.40;91.20;;;;;;5055225;28;20209;-72
2023/07/28 05:46:21;;;;;;;4.40;3.57;;;22.40;91.30;;;;;;5061285;28;20223;-71
2023/07/28 05:48:48;;;;;;;3.47;3.17;;;22.40;91.40;;;;;;5072065;28;20707;-72
2023/07/28 05:51:14;;;;;;;3.77;3.47;;;22.40;91.50;;;;;;5071936;28;20564;-72
2023/07/28 05:53:41;;;;;;;3.77;3.07;;;22.40;91.50;;;;;;5071752;28;20201;-72
2023/07/28 05:56:08;;;;;;;4.27;3.30;;;22.40;91.40;;;;;;5071603;28;20209;-71
2023/07/28 05:58:35;;;;;;;3.03;2.80;;;22.40;91.70;;;;;;5071867;28;20255;-71
2023/07/28 06:01:02;;;;;;;3.13;2.83;;;22.30;91.80;;;;;;5075671;28;20228;-71
2023/07/28 06:03:30;;;;;;;4.33;3.20;;;22.30;91.90;;;;;;5075755;28;20269;-72
2023/07/28 06:05:57;;;;;;;3.00;2.67;;;22.30;91.90;;;;;;5075908;28;20208;-72
2023/07/28 06:08:24;;;;;;;3.23;2.93;;;22.20;92.10;;;;;;5075803;28;20225;-71
2023/07/28 06:10:51;;;;;;;3.13;2.80;;;22.10;92.30;;;;;;5075237;28;20577;-71
2023/07/28 06:13:17;;;;;;;3.07;2.70;;;22.10;92.30;;;;;;5075038;28;20228;-72
2023/07/28 06:15:44;;;;;;;3.00;2.70;;;22.10;92.50;;;;;;5075560;28;20295;-72
2023/07/28 06:18:11;;;;;;;3.53;2.87;;;22.00;92.50;;;;;;5075890;28;20201;-72
2023/07/28 06:20:42;;;;;;;3.13;2.93;;;22.00;92.70;;;;;;5074101;28;20588;-71
2023/07/28 06:23:09;;;;;;;2.60;2.40;;;22.00;92.90;;;;;;5075665;28;20205;-72
2023/07/28 06:25:37;;;;;;;3.27;2.57;;;22.00;92.80;;;;;;5075542;28;20209;-72
2023/07/28 06:28:05;;;;;;;2.60;2.40;;;22.00;93.10;;;;;;5075295;28;20225;-71
2023/07/28 06:30:31;;;;;;;2.33;2.13;;;22.00;93.10;;;;;;5075417;28;20221;-71
2023/07/28 06:32:58;;;;;;;3.77;2.20;;;22.00;93.00;;;;;;5074992;28;20576;-72
2023/07/28 06:35:25;;;;;;;2.47;2.23;;;22.00;93.10;;;;;;5074969;28;20204;-71
2023/07/28 06:37:53;;;;;;;2.80;2.40;;;22.00;93.20;;;;;;5075932;28;20198;-71
2023/07/28 06:40:20;;;;;;;2.57;2.37;;;22.00;93.30;;;;;;5074821;28;20217;-71
2023/07/28 06:42:47;;;;;;;2.40;2.20;;;22.00;93.30;;;;;;5066674;28;20205;-72
2023/07/28 06:45:14;;;;;;;2.20;2.00;;;22.10;93.40;;;;;;5057169;28;20205;-72
2023/07/28 06:47:41;;;;;;;2.93;2.30;;;22.10;93.30;;;;;;5074860;28;20656;-72
2023/07/28 06:50:09;;;;;;;2.70;2.30;;;22.30;93.60;;;;;;5074423;28;20217;-72
2023/07/28 06:52:36;;;;;;;2.10;1.90;;;22.30;93.20;;;;;;5074148;28;20224;-72
2023/07/28 06:55:05;;;;;;;2.30;2.10;;;22.30;93.00;;;;;;5073685;28;20233;-72
2023/07/28 06:57:31;;;;;;;2.27;2.00;;;22.40;93.10;;;;;;5074131;28;20217;-72
2023/07/28 07:00:00;;;;;;;2.27;2.07;;;22.40;93.00;;;;;;5073786;28;20216;-71
2023/07/28 07:02:26;;;;;;;2.20;2.00;;;22.40;92.80;;;;;;5073496;28;20617;-71
2023/07/28 07:04:53;;;;;;;2.10;1.80;;;22.40;92.80;;;;;;5073714;28;20229;-71
2023/07/28 07:07:20;;;;;;;2.27;2.07;;;22.40;92.90;;;;;;5074271;28;20205;-72
2023/07/28 07:09:47;;;;;;;1.87;1.70;;;22.40;93.00;;;;;;5065070;28;20222;-72
2023/07/28 07:12:15;;;;;;;2.70;1.60;;;22.40;93.20;;;;;;5072461;28;20198;-71
2023/07/28 07:14:44;;;;;;;2.10;1.90;;;22.50;93.00;;;;;;5074424;28;20198;-71
2023/07/28 07:17:11;;;;;;;1.80;1.70;;;22.50;92.90;;;;;;5074417;28;20233;-72
2023/07/28 07:19:37;;;;;;;2.03;1.90;;;22.50;92.70;;;;;;5073134;28;20221;-72
2023/07/28 07:22:05;;;;;;;2.40;2.20;;;22.60;92.70;;;;;;5072421;28;20201;-72
2023/07/28 07:24:32;;;;;;;3.83;2.10;;;22.50;92.70;;;;;;5073404;28;20225;-71
2023/07/28 07:26:59;;;;;;;2.20;2.00;;;22.50;92.70;;;;;;5073617;28;20215;-71
2023/07/28 07:29:27;;;;;;;2.13;1.97;;;22.50;92.70;;;;;;5067632;28;20232;-71
2023/07/28 07:31:56;;;;;;;2.10;1.90;;;22.60;92.90;;;;;;5065003;28;20358;-71
2023/07/28 07:34:23;;;;;;;2.20;2.00;;;22.60;92.70;;;;;;5066195;28;20209;-71
2023/07/28 07:36:50;;;;;;;2.53;2.23;;;22.70;92.80;;;;;;5072035;28;20219;-71
2023/07/28 07:39:17;;;;;;;2.70;1.80;;;22.60;92.70;;;;;;5072140;28;20281;-72
2023/07/28 07:41:43;;;;;;;5.10;1.80;;;22.60;92.80;;;;;;5072954;28;20300;-72
2023/07/28 07:44:10;;;;;;;2.13;1.57;;;22.60;92.80;;;;;;5073326;28;20225;-71
2023/07/28 07:46:38;;;;;;;1.90;1.70;;;22.60;92.70;;;;;;5073082;28;20702;-71
2023/07/28 07:49:05;;;;;;;2.47;1.80;;;22.60;93.30;;;;;;5072936;28;20220;-71
2023/07/28 07:51:33;;;;;;;2.27;2.07;;;22.70;92.90;;;;;;5071964;28;20292;-71
2023/07/28 07:54:01;;;;;;;2.10;1.83;;;22.80;92.80;;;;;;5072082;28;20278;-71
2023/07/28 07:56:28;;;;;;;1.87;1.73;;;22.90;92.80;;;;;;5072495;28;20237;-71
2023/07/28 07:58:55;;;;;;;2.10;1.90;;;23.00;92.60;;;;;;5073070;28;20193;-71
2023/07/28 08:01:21;;;;;;;2.00;1.83;;;23.20;92.80;;;;;;5072897;28;20219;-72
2023/07/28 08:03:50;;;;;;;2.20;2.00;;;23.20;92.50;;;;;;5072509;28;20577;-71
2023/07/28 08:06:17;;;;;;;2.53;1.97;;;23.20;92.30;;;;;;5072740;28;20205;-72
2023/07/28 08:08:44;;;;;;;2.10;1.90;;;23.20;92.10;;;;;;5073234;28;20204;-71
2023/07/28 08:11:12;;;;;;;2.10;1.80;;;23.20;92.10;;;;;;5072431;28;20282;-71
2023/07/28 08:13:39;;;;;;;2.43;2.07;;;23.30;92.20;;;;;;5072294;28;20208;-71
2023/07/28 08:16:06;;;;;;;1.87;1.73;;;23.40;92.10;;;;;;5072511;28;20200;-71
2023/07/28 08:18:33;;;;;;;2.77;2.20;;;23.50;92.10;;;;;;5072220;28;20306;-71
2023/07/28 08:21:01;;;;;;;2.30;2.10;;;23.50;91.60;;;;;;5072215;28;20224;-71
2023/07/28 08:23:28;;;;;;;2.23;2.03;;;23.50;91.50;;;;;;5071247;28;20736;-72
2023/07/28 08:25:55;;;;;;;2.17;1.97;;;23.60;91.80;;;;;;5072303;28;20322;-72
2023/07/28 08:28:22;;;;;;;3.60;2.00;;;23.80;91.90;;;;;;5072232;28;20561;-71
2023/07/28 08:30:56;;;;;;;2.43;2.07;;;23.90;91.50;;;;;;5072282;28;20225;-72
2023/07/28 08:33:22;;;;;;;2.40;2.20;;;24.00;91.10;;;;;;5072139;28;20200;-71
2023/07/28 08:35:49;;;;;;;2.73;2.40;;;24.00;91.20;;;;;;5071779;28;20200;-71
2023/07/28 08:38:17;;;;;;;2.23;2.03;;;24.10;91.30;;;;;;5072335;28;20209;-71
2023/07/28 08:40:45;;;;;;;2.13;1.97;;;24.20;91.20;;;;;;5071620;28;20276;-71
2023/07/28 08:43:12;;;;;;;2.17;2.00;;;24.40;91.30;;;;;;5071142;28;20265;-71
2023/07/28 08:45:39;;;;;;;2.67;2.03;;;24.50;90.40;;;;;;5072066;28;20228;-71
2023/07/28 08:48:06;;;;;;;2.13;1.93;;;24.40;90.00;;;;;;5072308;28;20195;-71
2023/07/28 08:50:33;;;;;;;2.73;2.07;;;24.50;90.20;;;;;;5071498;28;20244;-71
2023/07/28 08:53:00;;;;;;;2.20;2.00;;;24.60;89.70;;;;;;5071127;28;20224;-72
2023/07/28 08:55:28;;;;;;;2.83;2.20;;;24.60;89.40;;;;;;5071838;28;20197;-71
2023/07/28 08:57:55;;;;;;;2.40;2.20;;;24.70;88.30;;;;;;5072222;28;20751;-72
2023/07/28 09:00:25;;;;;;;1.80;1.70;;;24.50;88.00;;;;;;5071826;28;20251;-71
2023/07/28 09:02:52;;;;;;;1.90;1.80;;;24.40;88.30;;;;;;5071658;28;20218;-71
2023/07/28 09:05:20;;;;;;;2.37;1.70;;;24.40;88.00;;;;;;5071184;28;20287;-71
2023/07/28 09:07:47;;;;;;;3.50;1.97;;;24.40;87.40;;;;;;5071709;28;20303;-72
2023/07/28 09:10:14;;;;;;;2.70;1.90;;;24.30;87.50;;;;;;5071730;28;20221;-71
2023/07/28 09:12:49;;;;;;;1.87;1.77;;;24.20;87.70;;;;;;5071672;28;20237;-71
2023/07/28 09:15:16;;;;;;;1.70;1.60;;;24.30;87.90;;;;;;5071244;28;20209;-71
2023/07/28 09:17:44;;;;;;;1.70;1.60;;;24.50;87.40;;;;;;5071701;28;20209;-72
2023/07/28 09:20:15;;;;;;;1.93;1.77;;;24.60;86.60;;;;;;5071309;28;20278;-72
2023/07/28 09:22:42;;;;;;;2.10;1.90;;;24.80;86.60;;;;;;5071166;28;20645;-71
2023/07/28 09:25:14;;;;;;;2.10;1.90;;;25.00;85.10;;;;;;5071340;28;20227;-71
2023/07/28 09:27:41;;;;;;;1.90;1.80;;;25.00;84.60;;;;;;5071276;28;20225;-71
2023/07/28 09:30:09;;;;;;;3.27;2.00;;;25.10;84.90;;;;;;5071414;28;20286;-71
2023/07/28 09:32:37;;;;;;;2.60;1.70;;;25.30;84.50;;;;;;5070908;28;20229;-71
2023/07/28 09:35:10;;;;;;;1.70;1.60;;;25.50;83.30;;;;;;5070879;28;20282;-71
2023/07/28 09:37:40;;;;;;;1.73;1.63;;;25.50;82.10;;;;;;5071471;28;20287;-72
2023/07/28 09:40:11;;;;;;;2.13;1.80;;;25.60;81.70;;;;;;5071365;28;20228;-71
2023/07/28 09:42:38;;;;;;;2.87;1.70;;;25.60;81.90;;;;;;5064711;28;20795;-72
2023/07/28 09:45:06;;;;;;;1.90;1.80;;;25.70;80.20;;;;;;5051296;28;20237;-71
2023/07/28 09:47:36;;;;;;;1.97;1.83;;;25.60;81.10;;;;;;5048292;28;20240;-71
2023/07/28 09:50:05;;;;;;;1.63;1.53;;;25.60;81.60;;;;;;5051185;28;20308;-71
2023/07/28 09:52:37;;;;;;;2.00;1.80;;;25.60;80.00;;;;;;5064905;28;20254;-72
2023/07/28 09:55:08;;;;;;;1.70;1.60;;;25.50;80.60;;;;;;5071522;28;20222;-72
2023/07/28 09:57:40;;;;;;;1.83;1.73;;;25.60;81.40;;;;;;5071650;28;20185;-71
2023/07/28 10:00:09;;;;;;;2.43;2.00;;;25.70;80.90;;;;;;5071129;28;20251;-71
2023/07/28 10:02:38;;;;;;;2.10;1.90;;;25.80;81.00;;;;;;5070674;28;20205;-72
2023/07/28 10:05:07;;;;;;;2.20;2.00;;;25.90;80.00;;;;;;5070855;28;20205;-72
2023/07/28 10:07:35;;;;;;;2.10;1.90;;;25.80;79.50;;;;;;5071277;28;20220;-70
2023/07/28 10:10:02;;;;;;;2.57;2.00;;;25.80;79.60;;;;;;5071192;28;20315;-72
2023/07/28 10:12:29;;;;;;;2.70;1.90;;;25.70;79.20;;;;;;5071014;28;20266;-72
2023/07/28 10:15:05;;;;;;;2.30;1.97;;;25.60;79.00;;;;;;5070612;28;20695;-71
2023/07/28 10:17:34;;;;;;;2.40;2.20;;;25.50;79.40;;;;;;5070910;28;20211;-71
2023/07/28 10:20:08;;;;;;;2.10;1.90;;;25.50;80.00;;;;;;5070984;28;20343;-72
2023/07/28 10:22:44;;;;;;;2.23;2.03;;;25.50;79.60;;;;;;5070879;28;20272;-71
2023/07/28 10:25:11;;;;;;;2.00;1.70;;;25.40;78.80;;;;;;5070881;28;20191;-71
2023/07/28 10:27:44;;;;;;;2.77;1.57;;;25.40;79.90;;;;;;5070291;28;20197;-72
2023/07/28 10:30:14;;;;;;;2.03;1.83;;;25.30;79.90;;;;;;5070963;28;20304;-72
2023/07/28 10:32:43;;;;;;;2.00;1.90;;;25.20;80.20;;;;;;5069947;28;20263;-72
2023/07/28 10:35:23;;;;;;;2.67;2.13;;;25.30;80.20;;;;;;5070656;28;20706;-72
2023/07/28 10:37:50;;;;;;;2.30;2.00;;;25.30;80.40;;;;;;5071212;28;20207;-71
2023/07/28 10:40:25;;;;;;;2.67;1.90;;;25.50;80.20;;;;;;5070869;28;20232;-72
2023/07/28 10:42:53;;;;;;;2.70;1.87;;;25.40;79.00;;;;;;5062919;28;20212;-71
2023/07/28 10:45:21;;;;;;;2.07;1.90;;;25.40;79.80;;;;;;5070327;28;20208;-72
2023/07/28 10:47:48;;;;;;;2.43;2.23;;;25.50;79.80;;;;;;5074173;28;20258;-72
2023/07/28 10:50:17;;;;;;;2.30;2.10;;;25.50;79.10;;;;;;5074132;28;20321;-71
2023/07/28 10:52:44;;;;;;;3.33;2.20;;;25.60;79.20;;;;;;5074133;28;20244;-73
2023/07/28 10:55:20;;;;;;;1.73;1.63;;;25.60;79.00;;;;;;5074352;28;20205;-72
2023/07/28 10:57:48;;;;;;;2.03;1.60;;;25.60;78.60;;;;;;5074562;28;20280;-71
2023/07/28 11:00:17;;;;;;;1.70;1.60;;;25.70;78.30;;;;;;5073489;28;20229;-72
2023/07/28 11:02:44;;;;;;;2.27;1.90;;;25.70;78.00;;;;;;5073859;28;20197;-72
2023/07/28 11:05:13;;;;;;;2.00;1.90;;;25.80;77.90;;;;;;5073713;28;20206;-72
2023/07/28 11:07:43;;;;;;;1.67;1.57;;;25.90;78.00;;;;;;5074091;28;20592;-72
2023/07/28 11:10:12;;;;;;;1.90;1.70;;;25.90;77.40;;;;;;5074404;28;20605;-72
2023/07/28 11:12:42;;;;;;;2.90;1.70;;;26.00;77.30;;;;;;5073896;28;20201;-72
2023/07/28 11:15:11;;;;;;;2.90;1.90;;;25.90;76.90;;;;;;5072561;28;20248;-72
2023/07/28 11:17:39;;;;;;;2.13;1.93;;;25.80;77.50;;;;;;5073807;28;20209;-71
2023/07/28 11:20:16;;;;;;;2.87;2.10;;;25.80;77.50;;;;;;5073752;28;20298;-72
2023/07/28 11:22:44;;;;;;;2.13;1.80;;;25.90;77.80;;;;;;5073640;28;20196;-72
2023/07/28 11:25:11;;;;;;;2.67;2.30;;;25.90;77.80;;;;;;5073435;28;20209;-72
2023/07/28 11:27:39;;;;;;;2.50;2.30;;;25.80;77.70;;;;;;5073598;28;20228;-71
2023/07/28 11:30:09;;;;;;;2.77;2.20;;;25.80;77.80;;;;;;5073184;28;20209;-71
2023/07/28 11:32:37;;;;;;;2.87;2.07;;;25.80;78.10;;;;;;5073135;28;20220;-71
2023/07/28 11:35:05;;;;;;;2.27;2.07;;;25.80;78.10;;;;;;5053522;28;20240;-72
2023/07/28 11:37:33;;;;;;;3.30;2.33;;;25.70;78.80;;;;;;5053645;28;20696;-71
2023/07/28 11:40:06;;;;;;;2.40;2.20;;;25.70;78.80;;;;;;5067104;28;20339;-72
2023/07/28 11:42:33;;;;;;;3.13;2.20;;;25.70;78.80;;;;;;5073418;28;20270;-72
2023/07/28 11:45:01;;;;;;;3.27;2.00;;;25.70;78.30;;;;;;5072366;28;20204;-71
2023/07/28 11:47:27;;;;;;;3.03;2.50;;;25.60;78.20;;;;;;5072778;28;20237;-72
2023/07/28 11:49:55;;;;;;;2.73;2.27;;;25.60;78.30;;;;;;5073309;28;20647;-72
2023/07/28 11:52:22;;;;;;;2.70;2.50;;;25.60;78.70;;;;;;5072634;28;20232;-71
2023/07/28 11:54:49;;;;;;;2.70;2.20;;;25.70;78.80;;;;;;5073187;28;20210;-71
2023/07/28 11:57:17;;;;;;;2.60;2.40;;;25.70;78.90;;;;;;5072955;28;20266;-71
2023/07/28 11:59:45;;;;;;;2.23;2.03;;;25.70;79.40;;;;;;5072430;28;20225;-72
2023/07/28 12:02:12;;;;;;;2.93;2.20;;;25.60;80.20;;;;;;5073128;28;20196;-71
2023/07/28 12:04:40;;;;;;;2.30;2.10;;;25.50;81.40;;;;;;5072658;28;20201;-71
2023/07/28 12:07:09;;;;;;;2.30;2.10;;;25.50;82.10;;;;;;5072410;28;20237;-72
2023/07/28 12:09:52;;;;;;;3.10;2.80;;;25.40;82.70;;;;;;5073195;28;20209;-72
2023/07/28 12:12:22;;;;;;;2.63;2.43;;;25.50;83.50;;;;;;5072733;28;20232;-72
2023/07/28 12:14:51;;;;;;;2.50;2.30;;;25.40;83.20;;;;;;5072366;28;20213;-71
2023/07/28 12:17:19;;;;;;;2.50;2.30;;;25.50;83.10;;;;;;5072991;28;20204;-71
2023/07/28 12:19:58;;;;;;;2.50;2.30;;;25.50;83.30;;;;;;5072608;28;20231;-71
2023/07/28 12:22:25;;;;;;;3.70;2.70;;;25.40;85.00;;;;;;5072680;28;20197;-72
2023/07/28 12:24:51;;;;;;;2.60;2.40;;;25.40;84.80;;;;;;5072595;28;20669;-72
2023/07/28 12:27:23;;;;;;;3.07;2.80;;;25.40;84.80;;;;;;5072268;28;20231;-71
2023/07/28 12:29:50;;;;;;;4.97;2.50;;;25.40;85.00;;;;;;5072755;28;20196;-72
2023/07/28 12:32:17;;;;;;;5.07;2.60;;;25.30;85.10;;;;;;5072473;28;20220;-71
2023/07/28 12:34:43;;;;;;;2.90;2.60;;;25.30;85.70;;;;;;5072055;28;20245;-71
2023/07/28 12:37:10;;;;;;;3.47;2.80;;;25.10;85.80;;;;;;5072497;28;20211;-73
2023/07/28 12:39:39;;;;;;;3.23;2.67;;;25.00;86.90;;;;;;5072245;28;20274;-72
2023/07/28 12:42:07;;;;;;;2.70;2.30;;;24.90;87.00;;;;;;5070112;28;20212;-72
2023/07/28 12:44:35;;;;;;;4.20;2.90;;;24.90;87.50;;;;;;5051833;28;20190;-72
2023/07/28 12:47:02;;;;;;;2.57;2.37;;;24.90;88.20;;;;;;5052152;28;20235;-72
2023/07/28 12:49:29;;;;;;;3.00;2.47;;;24.80;87.70;;;;;;5052220;28;20627;-72
2023/07/28 12:51:57;;;;;;;4.53;2.30;;;24.90;87.90;;;;;;5065240;28;20217;-72